CFG2016 EDDF-EDDH
Flight info
| Callsign | CFG2016 |
|---|---|
| Flight time | N/A |
| Altitude | 35000 |
| Route | MARUN7F/25C MARUN Y150 TOLGI DCT SAS/N0455F340 P605 NOLGO NOLGO6A |
| Aircraft | A339/H-SADE1E2E3GHIJ3J5M1P2RWXY/LB2D1 |
Departure
| Time | 2026-05-06 13:35 |
|---|---|
| Airport | Frankfurt Main Airport (EDDF) |
Arrival
| Time | N/A |
|---|---|
| Airport | Hamburg Helmut Schmidt Airport (EDDH) |
| Time | Latitude | Longitude | Altitude | Speed | Heading |
|---|---|---|---|---|---|
| 2026-05-06 13:03 | 50.04779 | 8.56497 | 368 ft | 0 kts | 340° |
| 2026-05-06 13:23 | 50.04778 | 8.56498 | 362 ft | 1 kts | 340° |
| 2026-05-06 13:23 | 50.04771 | 8.56501 | 369 ft | 1 kts | 340° |
| 2026-05-06 13:23 | 50.04764 | 8.56505 | 369 ft | 1 kts | 340° |
| 2026-05-06 13:24 | 50.04757 | 8.56509 | 366 ft | 1 kts | 340° |
| 2026-05-06 13:24 | 50.04750 | 8.56513 | 364 ft | 1 kts | 339° |
| 2026-05-06 13:24 | 50.04743 | 8.56517 | 366 ft | 1 kts | 339° |
| 2026-05-06 13:24 | 50.04737 | 8.56521 | 366 ft | 1 kts | 339° |
| 2026-05-06 13:25 | 50.04729 | 8.56524 | 366 ft | 1 kts | 325° |
| 2026-05-06 13:25 | 50.04716 | 8.56551 | 368 ft | 0 kts | 240° |
| 2026-05-06 13:27 | 50.04716 | 8.56550 | 368 ft | 1 kts | 240° |
| 2026-05-06 13:27 | 50.04702 | 8.56504 | 363 ft | 9 kts | 245° |
| 2026-05-06 13:27 | 50.04667 | 8.56375 | 369 ft | 17 kts | 248° |
| 2026-05-06 13:27 | 50.04614 | 8.56177 | 368 ft | 24 kts | 247° |
| 2026-05-06 13:28 | 50.04514 | 8.55954 | 368 ft | 26 kts | 201° |
| 2026-05-06 13:28 | 50.04411 | 8.55914 | 367 ft | 9 kts | 185° |
| 2026-05-06 13:28 | 50.04323 | 8.55945 | 364 ft | 9 kts | 161° |
| 2026-05-06 13:28 | 50.04321 | 8.55946 | 363 ft | 0 kts | 161° |
| 2026-05-06 13:29 | 50.04309 | 8.55953 | 363 ft | 6 kts | 161° |
| 2026-05-06 13:29 | 50.04236 | 8.55943 | 362 ft | 15 kts | 194° |
| 2026-05-06 13:29 | 50.04129 | 8.55960 | 361 ft | 0 kts | 162° |
| 2026-05-06 13:30 | 50.04116 | 8.55967 | 365 ft | 6 kts | 160° |
| 2026-05-06 13:30 | 50.04084 | 8.56055 | 363 ft | 14 kts | 98° |
| 2026-05-06 13:30 | 50.04119 | 8.56243 | 362 ft | 22 kts | 71° |
| 2026-05-06 13:31 | 50.04180 | 8.56511 | 365 ft | 30 kts | 70° |
| 2026-05-06 13:31 | 50.04263 | 8.56836 | 367 ft | 33 kts | 69° |
| 2026-05-06 13:31 | 50.04318 | 8.57061 | 372 ft | 16 kts | 69° |
| 2026-05-06 13:31 | 50.04368 | 8.57267 | 369 ft | 25 kts | 69° |
| 2026-05-06 13:32 | 50.04439 | 8.57559 | 372 ft | 32 kts | 71° |
| 2026-05-06 13:32 | 50.04503 | 8.57813 | 373 ft | 14 kts | 73° |
| 2026-05-06 13:32 | 50.04545 | 8.58005 | 374 ft | 24 kts | 71° |
| 2026-05-06 13:32 | 50.04607 | 8.58281 | 378 ft | 30 kts | 70° |
| 2026-05-06 13:33 | 50.04638 | 8.58417 | 376 ft | 2 kts | 71° |
| 2026-05-06 13:33 | 50.04650 | 8.58482 | 378 ft | 11 kts | 83° |
| 2026-05-06 13:33 | 50.04593 | 8.58574 | 375 ft | 9 kts | 170° |
| 2026-05-06 13:33 | 50.04583 | 8.58579 | 380 ft | 4 kts | 163° |
| 2026-05-06 13:34 | 50.04528 | 8.58590 | 376 ft | 11 kts | 180° |
| 2026-05-06 13:34 | 50.04459 | 8.58494 | 376 ft | 17 kts | 250° |
| 2026-05-06 13:34 | 50.04449 | 8.58451 | 377 ft | 0 kts | 249° |
| 2026-05-06 13:35 | 50.04408 | 8.58284 | 378 ft | 55 kts | 249° |
| 2026-05-06 13:35 | 50.04174 | 8.57324 | 372 ft | 133 kts | 250° |
| 2026-05-06 13:35 | 50.03787 | 8.55701 | 528 ft | 177 kts | 249° |
| 2026-05-06 13:35 | 50.03330 | 8.53860 | 1206 ft | 189 kts | 248° |
| 2026-05-06 13:36 | 50.02798 | 8.51909 | 1905 ft | 202 kts | 245° |
| 2026-05-06 13:36 | 50.02198 | 8.49888 | 2631 ft | 208 kts | 245° |
| 2026-05-06 13:36 | 50.01908 | 8.47737 | 3465 ft | 210 kts | 270° |
| 2026-05-06 13:36 | 50.02270 | 8.45444 | 4048 ft | 223 kts | 288° |
| 2026-05-06 13:37 | 50.02869 | 8.43202 | 4752 ft | 230 kts | 295° |
| 2026-05-06 13:37 | 50.03882 | 8.41237 | 5441 ft | 237 kts | 316° |
| 2026-05-06 13:37 | 50.05264 | 8.39765 | 6076 ft | 247 kts | 323° |
| 2026-05-06 13:37 | 50.06728 | 8.38181 | 6394 ft | 264 kts | 321° |
| 2026-05-06 13:38 | 50.08216 | 8.36461 | 6980 ft | 267 kts | 320° |
| 2026-05-06 13:38 | 50.09700 | 8.34694 | 7588 ft | 269 kts | 320° |
| 2026-05-06 13:38 | 50.11289 | 8.33199 | 8179 ft | 276 kts | 338° |
| 2026-05-06 13:38 | 50.13205 | 8.32820 | 8773 ft | 284 kts | 4° |
| 2026-05-06 13:39 | 50.15160 | 8.33516 | 8989 ft | 290 kts | 15° |
| 2026-05-06 13:39 | 50.17074 | 8.34540 | 9070 ft | 291 kts | 19° |
| 2026-05-06 13:39 | 50.18979 | 8.35610 | 9612 ft | 292 kts | 18° |
| 2026-05-06 13:39 | 50.20926 | 8.36644 | 10179 ft | 297 kts | 17° |
| 2026-05-06 13:40 | 50.22966 | 8.37664 | 10349 ft | 318 kts | 16° |
| 2026-05-06 13:40 | 50.25145 | 8.38708 | 10550 ft | 338 kts | 15° |
| 2026-05-06 13:40 | 50.27450 | 8.39796 | 10861 ft | 352 kts | 15° |
| 2026-05-06 13:40 | 50.29779 | 8.40894 | 11466 ft | 355 kts | 16° |
| 2026-05-06 13:41 | 50.32135 | 8.42109 | 12106 ft | 358 kts | 18° |
| 2026-05-06 13:41 | 50.34499 | 8.43415 | 12596 ft | 362 kts | 18° |
| 2026-05-06 13:41 | 50.36868 | 8.44739 | 12743 ft | 363 kts | 18° |
| 2026-05-06 13:41 | 50.39252 | 8.46065 | 12785 ft | 365 kts | 18° |
| 2026-05-06 13:42 | 50.41607 | 8.47589 | 13210 ft | 367 kts | 22° |
| 2026-05-06 13:42 | 50.43812 | 8.49090 | 13871 ft | 368 kts | 22° |
| 2026-05-06 13:42 | 50.46177 | 8.50683 | 14442 ft | 372 kts | 22° |
| 2026-05-06 13:42 | 50.48563 | 8.52297 | 14969 ft | 375 kts | 22° |
| 2026-05-06 13:43 | 50.50939 | 8.53915 | 15497 ft | 379 kts | 22° |
| 2026-05-06 13:43 | 50.53374 | 8.55583 | 16008 ft | 383 kts | 22° |
| 2026-05-06 13:43 | 50.55829 | 8.57271 | 16554 ft | 387 kts | 22° |
| 2026-05-06 13:43 | 50.58293 | 8.58970 | 17056 ft | 390 kts | 22° |
| 2026-05-06 13:44 | 50.60803 | 8.60704 | 17576 ft | 394 kts | 22° |
| 2026-05-06 13:44 | 50.63325 | 8.62448 | 18088 ft | 398 kts | 22° |
| 2026-05-06 13:44 | 50.65878 | 8.64216 | 18601 ft | 402 kts | 22° |
| 2026-05-06 13:44 | 50.68418 | 8.65978 | 19129 ft | 405 kts | 22° |
| 2026-05-06 13:45 | 50.71003 | 8.67774 | 19615 ft | 408 kts | 22° |
| 2026-05-06 13:45 | 50.76244 | 8.71422 | 20577 ft | 415 kts | 22° |
| 2026-05-06 13:45 | 50.78900 | 8.73274 | 21061 ft | 418 kts | 22° |
| 2026-05-06 13:46 | 50.81565 | 8.75134 | 21573 ft | 421 kts | 22° |
| 2026-05-06 13:46 | 50.84048 | 8.76797 | 22214 ft | 418 kts | 21° |
| 2026-05-06 13:46 | 50.86731 | 8.78648 | 22584 ft | 425 kts | 22° |
| 2026-05-06 13:46 | 50.89422 | 8.80563 | 23018 ft | 430 kts | 22° |
| 2026-05-06 13:47 | 50.92157 | 8.82516 | 23501 ft | 433 kts | 22° |
| 2026-05-06 13:47 | 50.94905 | 8.84469 | 23950 ft | 434 kts | 22° |
| 2026-05-06 13:47 | 50.97677 | 8.86428 | 24390 ft | 437 kts | 22° |
| 2026-05-06 13:47 | 51.00469 | 8.88398 | 24836 ft | 440 kts | 22° |
| 2026-05-06 13:48 | 51.03275 | 8.90376 | 25261 ft | 443 kts | 22° |
| 2026-05-06 13:48 | 51.06095 | 8.92364 | 25725 ft | 444 kts | 22° |
| 2026-05-06 13:48 | 51.08922 | 8.94361 | 26190 ft | 447 kts | 22° |
| 2026-05-06 13:48 | 51.11733 | 8.96351 | 26638 ft | 449 kts | 22° |
| 2026-05-06 13:49 | 51.14588 | 8.98375 | 27088 ft | 451 kts | 23° |
| 2026-05-06 13:49 | 51.17467 | 9.00418 | 27496 ft | 453 kts | 23° |
| 2026-05-06 13:49 | 51.20357 | 9.02472 | 27955 ft | 455 kts | 23° |
| 2026-05-06 13:49 | 51.23250 | 9.04531 | 28381 ft | 457 kts | 23° |
| 2026-05-06 13:50 | 51.26155 | 9.06602 | 28778 ft | 459 kts | 23° |
| 2026-05-06 13:50 | 51.29071 | 9.08683 | 29196 ft | 460 kts | 23° |
| 2026-05-06 13:50 | 51.32000 | 9.10777 | 29589 ft | 462 kts | 23° |
| 2026-05-06 13:50 | 51.34946 | 9.12886 | 30003 ft | 464 kts | 23° |
| 2026-05-06 13:51 | 51.37903 | 9.15007 | 30306 ft | 467 kts | 23° |
| 2026-05-06 13:51 | 51.40881 | 9.17144 | 30614 ft | 470 kts | 23° |
| 2026-05-06 13:51 | 51.43874 | 9.19297 | 30911 ft | 473 kts | 23° |
| 2026-05-06 13:51 | 51.46845 | 9.21436 | 31222 ft | 476 kts | 23° |
| 2026-05-06 13:52 | 51.49923 | 9.23656 | 31512 ft | 479 kts | 23° |
| 2026-05-06 13:52 | 51.52937 | 9.25833 | 31797 ft | 483 kts | 23° |
| 2026-05-06 13:52 | 51.56006 | 9.28054 | 32077 ft | 486 kts | 23° |
| 2026-05-06 13:52 | 51.59096 | 9.30293 | 32325 ft | 489 kts | 23° |
| 2026-05-06 13:53 | 51.62201 | 9.32546 | 32559 ft | 491 kts | 23° |
| 2026-05-06 13:53 | 51.65327 | 9.34817 | 32766 ft | 494 kts | 23° |
| 2026-05-06 13:53 | 51.68463 | 9.37099 | 32948 ft | 496 kts | 23° |
| 2026-05-06 13:53 | 51.71617 | 9.39397 | 33126 ft | 498 kts | 23° |
| 2026-05-06 13:54 | 51.74779 | 9.41706 | 33317 ft | 500 kts | 23° |
| 2026-05-06 13:54 | 51.77909 | 9.43994 | 33511 ft | 501 kts | 23° |
| 2026-05-06 13:54 | 51.81124 | 9.46349 | 33724 ft | 501 kts | 23° |
| 2026-05-06 13:54 | 51.84254 | 9.48645 | 33901 ft | 502 kts | 23° |
| 2026-05-06 13:55 | 51.87436 | 9.50982 | 34084 ft | 502 kts | 23° |
| 2026-05-06 13:55 | 51.90609 | 9.53318 | 34277 ft | 501 kts | 23° |
| 2026-05-06 13:55 | 51.93787 | 9.55659 | 34470 ft | 501 kts | 23° |
| 2026-05-06 13:55 | 51.96962 | 9.58003 | 34653 ft | 501 kts | 23° |
| 2026-05-06 13:56 | 52.00136 | 9.60349 | 34783 ft | 502 kts | 23° |
| 2026-05-06 13:56 | 52.03309 | 9.62697 | 34797 ft | 501 kts | 23° |
| 2026-05-06 13:56 | 52.09607 | 9.67370 | 34730 ft | 500 kts | 23° |
| 2026-05-06 13:57 | 52.12770 | 9.69722 | 34492 ft | 500 kts | 24° |
| 2026-05-06 13:57 | 52.15923 | 9.72071 | 34266 ft | 499 kts | 24° |
| 2026-05-06 13:57 | 52.19084 | 9.74429 | 34047 ft | 499 kts | 24° |
| 2026-05-06 13:57 | 52.22230 | 9.76780 | 33806 ft | 499 kts | 24° |
| 2026-05-06 13:58 | 52.25388 | 9.79143 | 33531 ft | 499 kts | 24° |
| 2026-05-06 13:58 | 52.28542 | 9.81508 | 33071 ft | 498 kts | 24° |
| 2026-05-06 13:58 | 52.31707 | 9.83884 | 32317 ft | 497 kts | 24° |
| 2026-05-06 13:58 | 52.34817 | 9.86221 | 31361 ft | 497 kts | 24° |
| 2026-05-06 13:59 | 52.37916 | 9.88554 | 30384 ft | 494 kts | 25° |
| 2026-05-06 13:59 | 52.41013 | 9.90887 | 29696 ft | 485 kts | 25° |
| 2026-05-06 13:59 | 52.44039 | 9.93173 | 29179 ft | 473 kts | 25° |
| 2026-05-06 13:59 | 52.46998 | 9.95412 | 28621 ft | 466 kts | 25° |
| 2026-05-06 14:00 | 52.49923 | 9.97628 | 28008 ft | 460 kts | 25° |
| 2026-05-06 14:00 | 52.52812 | 9.99819 | 27425 ft | 454 kts | 25° |
| 2026-05-06 14:00 | 52.55687 | 10.01839 | 26848 ft | 448 kts | 20° |
| 2026-05-06 14:00 | 52.58660 | 10.03263 | 26276 ft | 443 kts | 15° |
| 2026-05-06 14:01 | 52.61624 | 10.04556 | 25698 ft | 438 kts | 15° |
| 2026-05-06 14:01 | 52.64551 | 10.05854 | 25138 ft | 434 kts | 15° |
| 2026-05-06 14:01 | 52.67451 | 10.07152 | 24577 ft | 430 kts | 15° |
| 2026-05-06 14:01 | 52.70337 | 10.08448 | 24004 ft | 427 kts | 15° |
| 2026-05-06 14:02 | 52.73159 | 10.09717 | 23442 ft | 424 kts | 15° |
| 2026-05-06 14:02 | 52.75992 | 10.10965 | 22884 ft | 419 kts | 13° |
| 2026-05-06 14:02 | 52.78896 | 10.11735 | 22579 ft | 428 kts | 5° |
| 2026-05-06 14:02 | 52.81886 | 10.11918 | 22138 ft | 432 kts | 0° |
| 2026-05-06 14:03 | 52.84893 | 10.11995 | 21526 ft | 433 kts | 0° |
| 2026-05-06 14:03 | 52.87899 | 10.12091 | 20953 ft | 429 kts | 0° |
| 2026-05-06 14:03 | 52.90861 | 10.12191 | 20360 ft | 423 kts | 0° |
| 2026-05-06 14:03 | 52.93783 | 10.12292 | 19776 ft | 416 kts | 0° |
| 2026-05-06 14:04 | 52.96608 | 10.12387 | 19227 ft | 409 kts | 0° |
| 2026-05-06 14:04 | 52.99435 | 10.12482 | 18586 ft | 405 kts | 0° |
| 2026-05-06 14:04 | 53.02231 | 10.12576 | 18113 ft | 397 kts | 360° |
| 2026-05-06 14:04 | 53.04977 | 10.12668 | 17491 ft | 391 kts | 360° |
| 2026-05-06 14:05 | 53.07670 | 10.12758 | 16971 ft | 384 kts | 360° |
| 2026-05-06 14:05 | 53.10323 | 10.12845 | 16368 ft | 379 kts | 360° |
| 2026-05-06 14:05 | 53.12936 | 10.12931 | 15839 ft | 372 kts | 360° |
| 2026-05-06 14:05 | 53.15507 | 10.13018 | 15363 ft | 366 kts | 360° |
| 2026-05-06 14:06 | 53.18003 | 10.13100 | 14820 ft | 361 kts | 0° |
| 2026-05-06 14:06 | 53.20495 | 10.13180 | 14320 ft | 356 kts | 0° |
| 2026-05-06 14:06 | 53.22985 | 10.13260 | 13791 ft | 368 kts | 0° |
| 2026-05-06 14:06 | 53.25596 | 10.13344 | 13495 ft | 379 kts | 1° |
| 2026-05-06 14:07 | 53.28232 | 10.13431 | 13031 ft | 379 kts | 1° |
| 2026-05-06 14:07 | 53.30872 | 10.13518 | 12209 ft | 381 kts | 1° |
| 2026-05-06 14:07 | 53.33518 | 10.13604 | 11582 ft | 374 kts | 2° |
| 2026-05-06 14:07 | 53.36077 | 10.13688 | 11110 ft | 362 kts | 2° |
| 2026-05-06 14:08 | 53.38501 | 10.13474 | 10810 ft | 346 kts | 349° |
| 2026-05-06 14:08 | 53.40666 | 10.12007 | 10648 ft | 330 kts | 328° |
| 2026-05-06 14:08 | 53.42280 | 10.09436 | 10484 ft | 314 kts | 305° |
| 2026-05-06 14:08 | 53.43238 | 10.06259 | 10354 ft | 297 kts | 294° |
| 2026-05-06 14:09 | 53.44045 | 10.03180 | 10193 ft | 281 kts | 294° |
| 2026-05-06 14:09 | 53.44800 | 10.00285 | 10005 ft | 266 kts | 294° |
| 2026-05-06 14:09 | 53.45533 | 9.97438 | 9542 ft | 262 kts | 294° |
| 2026-05-06 14:09 | 53.46434 | 9.94822 | 8976 ft | 259 kts | 314° |
| 2026-05-06 14:10 | 53.47868 | 9.93121 | 8473 ft | 251 kts | 341° |
| 2026-05-06 14:10 | 53.49555 | 9.92693 | 7961 ft | 244 kts | 8° |
| 2026-05-06 14:10 | 53.51145 | 9.93515 | 7472 ft | 237 kts | 32° |
| 2026-05-06 14:10 | 53.52303 | 9.95388 | 7052 ft | 230 kts | 62° |
| 2026-05-06 14:11 | 53.52695 | 9.97914 | 6916 ft | 231 kts | 91° |
| 2026-05-06 14:11 | 53.52246 | 10.00497 | 6890 ft | 234 kts | 121° |
| 2026-05-06 14:11 | 53.51064 | 10.02356 | 6880 ft | 238 kts | 150° |
| 2026-05-06 14:11 | 53.49464 | 10.02972 | 6879 ft | 244 kts | 180° |
| 2026-05-06 14:12 | 53.47813 | 10.02134 | 6884 ft | 251 kts | 210° |
| 2026-05-06 14:12 | 53.46600 | 10.00078 | 6883 ft | 253 kts | 235° |
| 2026-05-06 14:12 | 53.45602 | 9.97656 | 6879 ft | 253 kts | 234° |
| 2026-05-06 14:12 | 53.44597 | 9.95229 | 6883 ft | 253 kts | 234° |
| 2026-05-06 14:13 | 53.43594 | 9.92806 | 6883 ft | 253 kts | 234° |
| 2026-05-06 14:13 | 53.42591 | 9.90386 | 6877 ft | 250 kts | 234° |
| 2026-05-06 14:13 | 53.41623 | 9.88048 | 6872 ft | 240 kts | 234° |
| 2026-05-06 14:13 | 53.40664 | 9.85725 | 6876 ft | 243 kts | 234° |
| 2026-05-06 14:14 | 53.39700 | 9.83396 | 6879 ft | 243 kts | 234° |
| 2026-05-06 14:14 | 53.38752 | 9.81103 | 6877 ft | 240 kts | 234° |
| 2026-05-06 14:14 | 53.37829 | 9.78855 | 6878 ft | 233 kts | 234° |
| 2026-05-06 14:14 | 53.36902 | 9.76599 | 6871 ft | 235 kts | 234° |
| 2026-05-06 14:15 | 53.35977 | 9.74354 | 6873 ft | 233 kts | 234° |
| 2026-05-06 14:15 | 53.35056 | 9.72111 | 6872 ft | 234 kts | 234° |
| 2026-05-06 14:15 | 53.34135 | 9.69871 | 6871 ft | 234 kts | 234° |
| 2026-05-06 14:15 | 53.33215 | 9.67628 | 6867 ft | 234 kts | 234° |
| 2026-05-06 14:16 | 53.32295 | 9.65387 | 6866 ft | 234 kts | 234° |
| 2026-05-06 14:16 | 53.31378 | 9.63146 | 6868 ft | 233 kts | 234° |
| 2026-05-06 14:16 | 53.30463 | 9.60906 | 6860 ft | 234 kts | 234° |
| 2026-05-06 14:16 | 53.29544 | 9.58671 | 6865 ft | 232 kts | 234° |
| 2026-05-06 14:17 | 53.28644 | 9.56469 | 6867 ft | 233 kts | 234° |
| 2026-05-06 14:17 | 53.27728 | 9.54232 | 6861 ft | 233 kts | 234° |
| 2026-05-06 14:17 | 53.26823 | 9.51992 | 6851 ft | 234 kts | 238° |
| 2026-05-06 14:17 | 53.26357 | 9.49412 | 6973 ft | 235 kts | 268° |
| 2026-05-06 14:18 | 53.26645 | 9.46751 | 7411 ft | 233 kts | 296° |
| 2026-05-06 14:18 | 53.27469 | 9.44496 | 8329 ft | 223 kts | 309° |
| 2026-05-06 14:18 | 53.28667 | 9.42799 | 8781 ft | 234 kts | 337° |
| 2026-05-06 14:18 | 53.30259 | 9.42213 | 8788 ft | 235 kts | 6° |
| 2026-05-06 14:19 | 53.31797 | 9.42876 | 8612 ft | 224 kts | 24° |
| 2026-05-06 14:19 | 53.33246 | 9.43817 | 8164 ft | 226 kts | 24° |
| 2026-05-06 14:19 | 53.34724 | 9.44776 | 7725 ft | 227 kts | 24° |
| 2026-05-06 14:19 | 53.36107 | 9.45985 | 7086 ft | 233 kts | 43° |
| 2026-05-06 14:20 | 53.37242 | 9.47985 | 6229 ft | 242 kts | 51° |
| 2026-05-06 14:20 | 53.38368 | 9.50183 | 5010 ft | 257 kts | 51° |
| 2026-05-06 14:20 | 53.39554 | 9.52518 | 4036 ft | 262 kts | 51° |
| 2026-05-06 14:20 | 53.40709 | 9.54778 | 3509 ft | 248 kts | 51° |
| 2026-05-06 14:21 | 53.41791 | 9.56885 | 3224 ft | 228 kts | 51° |
| 2026-05-06 14:21 | 53.42458 | 9.58185 | 3100 ft | 216 kts | 51° |
| 2026-05-06 14:21 | 53.43410 | 9.60027 | 3009 ft | 204 kts | 51° |
| 2026-05-06 14:21 | 53.44313 | 9.61779 | 2999 ft | 194 kts | 51° |
| 2026-05-06 14:22 | 53.45175 | 9.63454 | 2999 ft | 185 kts | 51° |
| 2026-05-06 14:22 | 53.46271 | 9.65569 | 3005 ft | 177 kts | 51° |
| 2026-05-06 14:22 | 53.47065 | 9.67108 | 2980 ft | 171 kts | 51° |
| 2026-05-06 14:22 | 53.47864 | 9.68565 | 2813 ft | 171 kts | 47° |
| 2026-05-06 14:23 | 53.48433 | 9.69492 | 2616 ft | 172 kts | 45° |
| 2026-05-06 14:23 | 53.49408 | 9.70703 | 2152 ft | 183 kts | 26° |
| 2026-05-06 14:23 | 53.50673 | 9.71301 | 1697 ft | 189 kts | 21° |
| 2026-05-06 14:23 | 53.51928 | 9.71840 | 1533 ft | 183 kts | 17° |
| 2026-05-06 14:24 | 53.53147 | 9.72223 | 1429 ft | 179 kts | 6° |
| 2026-05-06 14:24 | 53.54386 | 9.72469 | 823 ft | 189 kts | 30° |
| 2026-05-06 14:24 | 53.55642 | 9.73581 | 1200 ft | 205 kts | 30° |